sensor_id;sensor_type;location;lat;lon;timestamp;temperature;humidity
47310;DHT22;33046;52.270;6.832;2023-04-01T00:00:10;12.50;99.90
47310;DHT22;33046;52.270;6.832;2023-04-01T00:02:20;12.50;99.90
47310;DHT22;33046;52.270;6.832;2023-04-01T00:04:26;12.40;99.90
47310;DHT22;33046;52.270;6.832;2023-04-01T00:06:33;12.40;99.90
47310;DHT22;33046;52.270;6.832;2023-04-01T00:08:40;12.40;99.90
47310;DHT22;33046;52.270;6.832;2023-04-01T00:10:47;12.40;99.90
47310;DHT22;33046;52.270;6.832;2023-04-01T00:12:54;12.40;99.90
47310;DHT22;33046;52.270;6.832;2023-04-01T00:15:03;12.40;99.90
47310;DHT22;33046;52.270;6.832;2023-04-01T00:17:10;12.40;99.90
47310;DHT22;33046;52.270;6.832;2023-04-01T00:19:16;12.40;99.90
47310;DHT22;33046;52.270;6.832;2023-04-01T00:21:23;12.40;99.90
47310;DHT22;33046;52.270;6.832;2023-04-01T00:23:30;12.40;99.90
47310;DHT22;33046;52.270;6.832;2023-04-01T00:25:37;12.40;99.90
47310;DHT22;33046;52.270;6.832;2023-04-01T00:27:44;12.40;99.90
47310;DHT22;33046;52.270;6.832;2023-04-01T00:29:51;12.40;99.90
47310;DHT22;33046;52.270;6.832;2023-04-01T00:31:59;12.40;99.90
47310;DHT22;33046;52.270;6.832;2023-04-01T00:34:06;12.30;99.90
47310;DHT22;33046;52.270;6.832;2023-04-01T00:36:15;12.30;99.90
47310;DHT22;33046;52.270;6.832;2023-04-01T00:38:22;12.40;99.90
47310;DHT22;33046;52.270;6.832;2023-04-01T00:40:30;12.40;99.90
47310;DHT22;33046;52.270;6.832;2023-04-01T00:42:38;12.30;99.90
47310;DHT22;33046;52.270;6.832;2023-04-01T00:44:46;12.30;99.90
47310;DHT22;33046;52.270;6.832;2023-04-01T00:46:54;12.40;99.90
47310;DHT22;33046;52.270;6.832;2023-04-01T00:49:03;12.30;99.90
47310;DHT22;33046;52.270;6.832;2023-04-01T00:51:12;12.30;99.90
47310;DHT22;33046;52.270;6.832;2023-04-01T00:53:21;12.30;99.90
47310;DHT22;33046;52.270;6.832;2023-04-01T00:55:32;12.40;99.90
47310;DHT22;33046;52.270;6.832;2023-04-01T00:57:41;12.40;99.90
47310;DHT22;33046;52.270;6.832;2023-04-01T00:59:51;12.30;99.90
47310;DHT22;33046;52.270;6.832;2023-04-01T01:01:59;12.30;99.90
47310;DHT22;33046;52.270;6.832;2023-04-01T01:04:21;12.30;99.90
47310;DHT22;33046;52.270;6.832;2023-04-01T01:06:39;12.30;99.90
47310;DHT22;33046;52.270;6.832;2023-04-01T01:11:31;12.30;99.90
47310;DHT22;33046;52.270;6.832;2023-04-01T01:13:46;12.30;99.90
47310;DHT22;33046;52.270;6.832;2023-04-01T01:15:58;12.30;99.90
47310;DHT22;33046;52.270;6.832;2023-04-01T01:18:11;12.30;99.90
47310;DHT22;33046;52.270;6.832;2023-04-01T01:20:44;12.30;99.90
47310;DHT22;33046;52.270;6.832;2023-04-01T01:25:57;12.30;99.90
47310;DHT22;33046;52.270;6.832;2023-04-01T01:28:21;12.30;99.90
47310;DHT22;33046;52.270;6.832;2023-04-01T01:30:39;12.30;99.90
47310;DHT22;33046;52.270;6.832;2023-04-01T01:32:59;12.30;99.90
47310;DHT22;33046;52.270;6.832;2023-04-01T01:35:22;12.30;99.90
47310;DHT22;33046;52.270;6.832;2023-04-01T01:37:31;12.30;99.90
47310;DHT22;33046;52.270;6.832;2023-04-01T01:39:39;12.20;99.90
47310;DHT22;33046;52.270;6.832;2023-04-01T01:41:48;12.20;99.90
47310;DHT22;33046;52.270;6.832;2023-04-01T01:43:56;12.20;99.90
47310;DHT22;33046;52.270;6.832;2023-04-01T01:46:08;12.20;99.90
47310;DHT22;33046;52.270;6.832;2023-04-01T01:48:17;12.20;99.90
47310;DHT22;33046;52.270;6.832;2023-04-01T01:50:26;12.20;99.90
47310;DHT22;33046;52.270;6.832;2023-04-01T01:52:33;12.20;99.90
47310;DHT22;33046;52.270;6.832;2023-04-01T01:54:47;12.20;99.90
47310;DHT22;33046;52.270;6.832;2023-04-01T01:57:00;12.20;99.90
47310;DHT22;33046;52.270;6.832;2023-04-01T01:59:11;12.20;99.90
47310;DHT22;33046;52.270;6.832;2023-04-01T02:01:21;12.20;99.90
47310;DHT22;33046;52.270;6.832;2023-04-01T02:03:33;12.20;99.90
47310;DHT22;33046;52.270;6.832;2023-04-01T02:05:42;12.20;99.90
47310;DHT22;33046;52.270;6.832;2023-04-01T02:07:53;12.20;99.90
47310;DHT22;33046;52.270;6.832;2023-04-01T02:10:02;12.20;99.90
47310;DHT22;33046;52.270;6.832;2023-04-01T02:12:13;12.20;99.90
47310;DHT22;33046;52.270;6.832;2023-04-01T02:14:22;12.20;99.90
47310;DHT22;33046;52.270;6.832;2023-04-01T02:16:33;12.20;99.90
47310;DHT22;33046;52.270;6.832;2023-04-01T02:18:42;12.20;99.90
47310;DHT22;33046;52.270;6.832;2023-04-01T02:20:52;12.10;99.90
47310;DHT22;33046;52.270;6.832;2023-04-01T02:22:59;12.20;99.90
47310;DHT22;33046;52.270;6.832;2023-04-01T02:25:09;12.20;99.90
47310;DHT22;33046;52.270;6.832;2023-04-01T02:27:17;12.20;99.90
47310;DHT22;33046;52.270;6.832;2023-04-01T02:29:24;12.20;99.90
47310;DHT22;33046;52.270;6.832;2023-04-01T02:31:32;12.20;99.90
47310;DHT22;33046;52.270;6.832;2023-04-01T02:33:41;12.20;99.90
47310;DHT22;33046;52.270;6.832;2023-04-01T02:35:48;12.20;99.90
47310;DHT22;33046;52.270;6.832;2023-04-01T02:37:57;12.20;99.90
47310;DHT22;33046;52.270;6.832;2023-04-01T02:40:06;12.10;99.90
47310;DHT22;33046;52.270;6.832;2023-04-01T02:42:13;12.20;99.90
47310;DHT22;33046;52.270;6.832;2023-04-01T02:44:20;12.20;99.90
47310;DHT22;33046;52.270;6.832;2023-04-01T02:46:27;12.20;99.90
47310;DHT22;33046;52.270;6.832;2023-04-01T02:48:34;12.20;99.90
47310;DHT22;33046;52.270;6.832;2023-04-01T02:50:41;12.20;99.90
47310;DHT22;33046;52.270;6.832;2023-04-01T02:52:48;12.20;99.90
47310;DHT22;33046;52.270;6.832;2023-04-01T02:54:57;12.20;99.90
47310;DHT22;33046;52.270;6.832;2023-04-01T02:57:03;12.20;99.90
47310;DHT22;33046;52.270;6.832;2023-04-01T02:59:10;12.20;99.90
47310;DHT22;33046;52.270;6.832;2023-04-01T03:01:17;12.10;99.90
47310;DHT22;33046;52.270;6.832;2023-04-01T03:03:24;12.20;99.90
47310;DHT22;33046;52.270;6.832;2023-04-01T03:05:31;12.20;99.90
47310;DHT22;33046;52.270;6.832;2023-04-01T03:07:38;12.20;99.90
47310;DHT22;33046;52.270;6.832;2023-04-01T03:09:45;12.20;99.90
47310;DHT22;33046;52.270;6.832;2023-04-01T03:11:53;12.20;99.90
47310;DHT22;33046;52.270;6.832;2023-04-01T03:13:59;12.10;99.90
47310;DHT22;33046;52.270;6.832;2023-04-01T03:16:07;12.10;99.90
47310;DHT22;33046;52.270;6.832;2023-04-01T03:18:14;12.10;99.90
47310;DHT22;33046;52.270;6.832;2023-04-01T03:20:21;12.10;99.90
47310;DHT22;33046;52.270;6.832;2023-04-01T03:22:29;12.10;99.90
47310;DHT22;33046;52.270;6.832;2023-04-01T03:24:36;12.10;99.90
47310;DHT22;33046;52.270;6.832;2023-04-01T03:26:42;12.10;99.90
47310;DHT22;33046;52.270;6.832;2023-04-01T03:28:51;12.10;99.90
47310;DHT22;33046;52.270;6.832;2023-04-01T03:30:58;12.10;99.90
47310;DHT22;33046;52.270;6.832;2023-04-01T03:33:05;12.10;99.90
47310;DHT22;33046;52.270;6.832;2023-04-01T03:35:11;12.10;99.90
47310;DHT22;33046;52.270;6.832;2023-04-01T03:37:18;12.10;99.90
47310;DHT22;33046;52.270;6.832;2023-04-01T03:39:25;12.10;99.90
47310;DHT22;33046;52.270;6.832;2023-04-01T03:41:32;12.10;99.90
47310;DHT22;33046;52.270;6.832;2023-04-01T03:43:41;12.10;99.90
47310;DHT22;33046;52.270;6.832;2023-04-01T03:45:51;12.10;99.90
47310;DHT22;33046;52.270;6.832;2023-04-01T03:47:58;12.10;99.90
47310;DHT22;33046;52.270;6.832;2023-04-01T03:50:06;12.10;99.90
47310;DHT22;33046;52.270;6.832;2023-04-01T03:52:13;12.10;99.90
47310;DHT22;33046;52.270;6.832;2023-04-01T03:54:20;12.10;99.90
47310;DHT22;33046;52.270;6.832;2023-04-01T03:56:27;12.10;99.90
47310;DHT22;33046;52.270;6.832;2023-04-01T03:58:35;12.10;99.90
47310;DHT22;33046;52.270;6.832;2023-04-01T04:00:43;12.10;99.90
47310;DHT22;33046;52.270;6.832;2023-04-01T04:02:52;12.10;99.90
47310;DHT22;33046;52.270;6.832;2023-04-01T04:05:05;12.10;99.90
47310;DHT22;33046;52.270;6.832;2023-04-01T04:07:13;12.10;99.90
47310;DHT22;33046;52.270;6.832;2023-04-01T04:09:38;12.10;99.90
47310;DHT22;33046;52.270;6.832;2023-04-01T04:11:44;12.10;99.90
47310;DHT22;33046;52.270;6.832;2023-04-01T04:13:51;12.10;99.90
47310;DHT22;33046;52.270;6.832;2023-04-01T04:15:58;12.10;99.90
47310;DHT22;33046;52.270;6.832;2023-04-01T04:18:07;12.10;99.90
47310;DHT22;33046;52.270;6.832;2023-04-01T04:20:14;12.10;99.90
47310;DHT22;33046;52.270;6.832;2023-04-01T04:22:21;12.10;99.90
47310;DHT22;33046;52.270;6.832;2023-04-01T04:24:28;12.10;99.90
47310;DHT22;33046;52.270;6.832;2023-04-01T04:26:45;12.10;99.90
47310;DHT22;33046;52.270;6.832;2023-04-01T04:28:52;12.10;99.90
47310;DHT22;33046;52.270;6.832;2023-04-01T04:31:00;12.10;99.90
47310;DHT22;33046;52.270;6.832;2023-04-01T04:33:08;12.10;99.90
47310;DHT22;33046;52.270;6.832;2023-04-01T04:35:15;12.10;99.90
47310;DHT22;33046;52.270;6.832;2023-04-01T04:37:22;12.10;99.90
47310;DHT22;33046;52.270;6.832;2023-04-01T04:39:29;12.10;99.90
47310;DHT22;33046;52.270;6.832;2023-04-01T04:41:37;12.10;99.90
47310;DHT22;33046;52.270;6.832;2023-04-01T04:43:49;12.10;99.90
47310;DHT22;33046;52.270;6.832;2023-04-01T04:45:56;12.10;99.90
47310;DHT22;33046;52.270;6.832;2023-04-01T04:48:03;12.10;99.90
47310;DHT22;33046;52.270;6.832;2023-04-01T04:50:12;12.10;99.90
47310;DHT22;33046;52.270;6.832;2023-04-01T04:52:20;12.10;99.90
47310;DHT22;33046;52.270;6.832;2023-04-01T04:54:27;12.10;99.90
47310;DHT22;33046;52.270;6.832;2023-04-01T04:56:36;12.10;99.90
47310;DHT22;33046;52.270;6.832;2023-04-01T04:58:45;12.10;99.90
47310;DHT22;33046;52.270;6.832;2023-04-01T05:00:56;12.10;99.90
47310;DHT22;33046;52.270;6.832;2023-04-01T05:03:07;12.10;99.90
47310;DHT22;33046;52.270;6.832;2023-04-01T05:05:16;12.00;99.90
47310;DHT22;33046;52.270;6.832;2023-04-01T05:07:23;12.10;99.90
47310;DHT22;33046;52.270;6.832;2023-04-01T05:09:30;12.10;99.90
47310;DHT22;33046;52.270;6.832;2023-04-01T05:11:37;12.10;99.90
47310;DHT22;33046;52.270;6.832;2023-04-01T05:13:45;12.10;99.90
47310;DHT22;33046;52.270;6.832;2023-04-01T05:15:51;12.10;99.90
47310;DHT22;33046;52.270;6.832;2023-04-01T05:17:58;12.10;99.90
47310;DHT22;33046;52.270;6.832;2023-04-01T05:20:06;12.10;99.90
47310;DHT22;33046;52.270;6.832;2023-04-01T05:22:15;12.10;99.90
47310;DHT22;33046;52.270;6.832;2023-04-01T05:24:23;12.10;99.90
47310;DHT22;33046;52.270;6.832;2023-04-01T05:26:31;12.10;99.90
47310;DHT22;33046;52.270;6.832;2023-04-01T05:28:38;12.10;99.90
47310;DHT22;33046;52.270;6.832;2023-04-01T05:30:44;12.00;99.90
47310;DHT22;33046;52.270;6.832;2023-04-01T05:33:03;12.00;99.90
47310;DHT22;33046;52.270;6.832;2023-04-01T05:35:10;12.00;99.90
47310;DHT22;33046;52.270;6.832;2023-04-01T05:37:19;12.00;99.90
47310;DHT22;33046;52.270;6.832;2023-04-01T05:39:26;12.00;99.90
47310;DHT22;33046;52.270;6.832;2023-04-01T05:41:34;12.00;99.90
47310;DHT22;33046;52.270;6.832;2023-04-01T05:43:41;12.10;99.90
47310;DHT22;33046;52.270;6.832;2023-04-01T05:46:11;12.10;99.90
47310;DHT22;33046;52.270;6.832;2023-04-01T05:48:28;12.00;99.90
47310;DHT22;33046;52.270;6.832;2023-04-01T05:50:35;12.00;99.90
47310;DHT22;33046;52.270;6.832;2023-04-01T05:52:44;12.00;99.90
47310;DHT22;33046;52.270;6.832;2023-04-01T05:54:51;12.00;99.90
47310;DHT22;33046;52.270;6.832;2023-04-01T05:56:58;12.00;99.90
47310;DHT22;33046;52.270;6.832;2023-04-01T05:59:05;12.00;99.90
47310;DHT22;33046;52.270;6.832;2023-04-01T06:01:12;12.10;99.90
47310;DHT22;33046;52.270;6.832;2023-04-01T06:03:22;12.10;99.90
47310;DHT22;33046;52.270;6.832;2023-04-01T06:05:30;12.00;99.90
47310;DHT22;33046;52.270;6.832;2023-04-01T06:07:41;12.10;99.90
47310;DHT22;33046;52.270;6.832;2023-04-01T06:09:50;12.10;99.90
47310;DHT22;33046;52.270;6.832;2023-04-01T06:12:17;12.00;99.90
47310;DHT22;33046;52.270;6.832;2023-04-01T06:14:37;12.10;99.90
47310;DHT22;33046;52.270;6.832;2023-04-01T06:16:59;12.00;99.90
47310;DHT22;33046;52.270;6.832;2023-04-01T06:19:25;12.10;99.90
47310;DHT22;33046;52.270;6.832;2023-04-01T06:21:49;12.00;99.90
47310;DHT22;33046;52.270;6.832;2023-04-01T06:24:08;12.10;99.90
47310;DHT22;33046;52.270;6.832;2023-04-01T06:26:27;12.00;99.90
47310;DHT22;33046;52.270;6.832;2023-04-01T06:31:16;12.10;99.90
47310;DHT22;33046;52.270;6.832;2023-04-01T06:33:46;12.10;99.90
47310;DHT22;33046;52.270;6.832;2023-04-01T06:36:15;12.10;99.90
47310;DHT22;33046;52.270;6.832;2023-04-01T06:38:55;12.10;99.90
47310;DHT22;33046;52.270;6.832;2023-04-01T06:41:28;12.10;99.90
47310;DHT22;33046;52.270;6.832;2023-04-01T06:43:53;12.10;99.90
47310;DHT22;33046;52.270;6.832;2023-04-01T06:46:26;12.10;99.90
47310;DHT22;33046;52.270;6.832;2023-04-01T06:49:21;12.10;99.90
47310;DHT22;33046;52.270;6.832;2023-04-01T06:51:56;12.20;99.90
47310;DHT22;33046;52.270;6.832;2023-04-01T06:54:27;12.20;99.90
47310;DHT22;33046;52.270;6.832;2023-04-01T06:56:59;12.20;99.90
47310;DHT22;33046;52.270;6.832;2023-04-01T06:59:11;12.20;99.90
47310;DHT22;33046;52.270;6.832;2023-04-01T07:01:22;12.20;99.90
47310;DHT22;33046;52.270;6.832;2023-04-01T07:03:33;12.20;99.90
47310;DHT22;33046;52.270;6.832;2023-04-01T07:05:42;12.30;99.90
47310;DHT22;33046;52.270;6.832;2023-04-01T07:07:51;12.30;99.90
47310;DHT22;33046;52.270;6.832;2023-04-01T07:09:59;12.30;99.90
47310;DHT22;33046;52.270;6.832;2023-04-01T07:12:16;12.30;99.90
47310;DHT22;33046;52.270;6.832;2023-04-01T07:15:03;12.30;99.90
47310;DHT22;33046;52.270;6.832;2023-04-01T07:17:15;12.30;99.90
47310;DHT22;33046;52.270;6.832;2023-04-01T07:19:27;12.40;99.90
47310;DHT22;33046;52.270;6.832;2023-04-01T07:21:45;12.40;99.90
47310;DHT22;33046;52.270;6.832;2023-04-01T07:24:05;12.40;99.90
47310;DHT22;33046;52.270;6.832;2023-04-01T07:26:19;12.40;99.90
47310;DHT22;33046;52.270;6.832;2023-04-01T07:28:48;12.50;99.90
47310;DHT22;33046;52.270;6.832;2023-04-01T07:31:14;12.50;99.90
47310;DHT22;33046;52.270;6.832;2023-04-01T07:33:26;12.50;99.90
47310;DHT22;33046;52.270;6.832;2023-04-01T07:35:37;12.60;99.90
47310;DHT22;33046;52.270;6.832;2023-04-01T07:37:52;12.60;99.90
47310;DHT22;33046;52.270;6.832;2023-04-01T07:40:12;12.70;99.90
47310;DHT22;33046;52.270;6.832;2023-04-01T07:42:31;12.70;99.90
47310;DHT22;33046;52.270;6.832;2023-04-01T07:44:50;12.70;99.90
47310;DHT22;33046;52.270;6.832;2023-04-01T07:47:31;12.70;99.90
47310;DHT22;33046;52.270;6.832;2023-04-01T07:49:49;12.80;99.90
47310;DHT22;33046;52.270;6.832;2023-04-01T07:52:04;12.90;99.90
47310;DHT22;33046;52.270;6.832;2023-04-01T07:54:21;13.00;99.90
47310;DHT22;33046;52.270;6.832;2023-04-01T07:56:30;13.00;99.90
47310;DHT22;33046;52.270;6.832;2023-04-01T07:58:49;13.10;99.90
47310;DHT22;33046;52.270;6.832;2023-04-01T08:01:23;13.10;99.90
47310;DHT22;33046;52.270;6.832;2023-04-01T08:03:43;13.20;99.90
47310;DHT22;33046;52.270;6.832;2023-04-01T08:05:58;13.30;99.90
47310;DHT22;33046;52.270;6.832;2023-04-01T08:08:16;13.30;99.90
47310;DHT22;33046;52.270;6.832;2023-04-01T08:11:11;13.30;99.90
47310;DHT22;33046;52.270;6.832;2023-04-01T08:13:44;13.40;99.90
47310;DHT22;33046;52.270;6.832;2023-04-01T08:16:17;13.50;99.90
47310;DHT22;33046;52.270;6.832;2023-04-01T08:18:37;13.50;99.90
47310;DHT22;33046;52.270;6.832;2023-04-01T08:20:48;13.50;99.90
47310;DHT22;33046;52.270;6.832;2023-04-01T08:22:59;13.60;99.90
47310;DHT22;33046;52.270;6.832;2023-04-01T08:25:17;13.70;99.90
47310;DHT22;33046;52.270;6.832;2023-04-01T08:27:31;13.70;99.90
47310;DHT22;33046;52.270;6.832;2023-04-01T08:29:45;13.80;99.90
47310;DHT22;33046;52.270;6.832;2023-04-01T08:31:56;13.80;99.90
47310;DHT22;33046;52.270;6.832;2023-04-01T08:34:12;13.80;99.90
47310;DHT22;33046;52.270;6.832;2023-04-01T08:36:23;13.90;99.90
47310;DHT22;33046;52.270;6.832;2023-04-01T08:38:46;13.90;99.90
47310;DHT22;33046;52.270;6.832;2023-04-01T08:46:56;14.20;99.90
47310;DHT22;33046;52.270;6.832;2023-04-01T08:49:18;14.30;99.90
47310;DHT22;33046;52.270;6.832;2023-04-01T08:54:31;14.40;99.90
47310;DHT22;33046;52.270;6.832;2023-04-01T08:56:50;14.40;99.90
47310;DHT22;33046;52.270;6.832;2023-04-01T08:59:26;14.50;99.90
47310;DHT22;33046;52.270;6.832;2023-04-01T09:01:57;14.50;99.90
47310;DHT22;33046;52.270;6.832;2023-04-01T09:05:03;14.50;99.90
47310;DHT22;33046;52.270;6.832;2023-04-01T09:07:30;14.60;99.90
47310;DHT22;33046;52.270;6.832;2023-04-01T09:10:18;14.60;99.90
47310;DHT22;33046;52.270;6.832;2023-04-01T09:13:03;14.60;99.90
47310;DHT22;33046;52.270;6.832;2023-04-01T09:18:12;14.50;99.90
47310;DHT22;33046;52.270;6.832;2023-04-01T09:20:35;14.60;99.90
47310;DHT22;33046;52.270;6.832;2023-04-01T09:23:04;14.60;99.90
47310;DHT22;33046;52.270;6.832;2023-04-01T09:27:56;14.70;99.90
47310;DHT22;33046;52.270;6.832;2023-04-01T09:30:27;14.70;99.90
47310;DHT22;33046;52.270;6.832;2023-04-01T09:33:07;14.70;99.90
47310;DHT22;33046;52.270;6.832;2023-04-01T09:35:24;14.80;99.90
47310;DHT22;33046;52.270;6.832;2023-04-01T09:37:51;14.90;99.90
47310;DHT22;33046;52.270;6.832;2023-04-01T09:40:18;14.90;99.90
47310;DHT22;33046;52.270;6.832;2023-04-01T09:42:50;14.90;99.90
47310;DHT22;33046;52.270;6.832;2023-04-01T09:45:07;14.90;99.90
47310;DHT22;33046;52.270;6.832;2023-04-01T09:47:27;15.00;99.90
47310;DHT22;33046;52.270;6.832;2023-04-01T09:49:55;14.90;99.90
47310;DHT22;33046;52.270;6.832;2023-04-01T09:52:18;15.00;99.90
47310;DHT22;33046;52.270;6.832;2023-04-01T09:54:43;15.10;99.90
47310;DHT22;33046;52.270;6.832;2023-04-01T09:59:56;15.00;99.90
47310;DHT22;33046;52.270;6.832;2023-04-01T10:11:04;15.10;99.90
47310;DHT22;33046;52.270;6.832;2023-04-01T10:13:42;15.20;99.90
47310;DHT22;33046;52.270;6.832;2023-04-01T10:16:14;15.30;99.90
47310;DHT22;33046;52.270;6.832;2023-04-01T10:18:44;15.40;99.90
47310;DHT22;33046;52.270;6.832;2023-04-01T10:23:54;15.60;99.90
47310;DHT22;33046;52.270;6.832;2023-04-01T10:26:35;15.50;99.90
47310;DHT22;33046;52.270;6.832;2023-04-01T10:32:10;15.60;99.90
47310;DHT22;33046;52.270;6.832;2023-04-01T10:34:50;15.60;99.90
47310;DHT22;33046;52.270;6.832;2023-04-01T10:37:10;15.60;99.90
47310;DHT22;33046;52.270;6.832;2023-04-01T10:39:33;15.60;99.90
47310;DHT22;33046;52.270;6.832;2023-04-01T10:45:38;15.70;99.90
47310;DHT22;33046;52.270;6.832;2023-04-01T10:48:18;15.70;99.90
47310;DHT22;33046;52.270;6.832;2023-04-01T10:50:50;15.70;99.90
47310;DHT22;33046;52.270;6.832;2023-04-01T10:53:29;15.70;99.90
47310;DHT22;33046;52.270;6.832;2023-04-01T10:56:39;15.70;99.90
47310;DHT22;33046;52.270;6.832;2023-04-01T10:59:20;15.80;99.90
47310;DHT22;33046;52.270;6.832;2023-04-01T11:02:17;15.80;99.90
47310;DHT22;33046;52.270;6.832;2023-04-01T11:05:24;15.90;99.90
47310;DHT22;33046;52.270;6.832;2023-04-01T11:08:08;15.90;99.90
47310;DHT22;33046;52.270;6.832;2023-04-01T11:10:50;15.90;99.90
47310;DHT22;33046;52.270;6.832;2023-04-01T11:13:33;15.90;99.90
47310;DHT22;33046;52.270;6.832;2023-04-01T11:16:12;15.90;99.90
47310;DHT22;33046;52.270;6.832;2023-04-01T11:19:01;15.90;99.90
47310;DHT22;33046;52.270;6.832;2023-04-01T11:24:06;15.70;99.90
47310;DHT22;33046;52.270;6.832;2023-04-01T11:26:40;15.60;99.90
47310;DHT22;33046;52.270;6.832;2023-04-01T11:32:18;15.30;99.90
47310;DHT22;33046;52.270;6.832;2023-04-01T11:34:43;15.20;99.90
47310;DHT22;33046;52.270;6.832;2023-04-01T11:37:02;15.10;99.90
47310;DHT22;33046;52.270;6.832;2023-04-01T11:39:22;15.00;99.90
47310;DHT22;33046;52.270;6.832;2023-04-01T11:42:04;15.10;99.90
47310;DHT22;33046;52.270;6.832;2023-04-01T11:44:37;15.10;99.90
47310;DHT22;33046;52.270;6.832;2023-04-01T11:47:02;15.00;99.90
47310;DHT22;33046;52.270;6.832;2023-04-01T11:49:23;15.00;99.90
47310;DHT22;33046;52.270;6.832;2023-04-01T11:52:01;15.00;99.90
47310;DHT22;33046;52.270;6.832;2023-04-01T11:54:22;14.90;99.90
47310;DHT22;33046;52.270;6.832;2023-04-01T11:56:52;14.90;99.90
47310;DHT22;33046;52.270;6.832;2023-04-01T11:59:32;14.80;99.90
47310;DHT22;33046;52.270;6.832;2023-04-01T12:01:50;14.70;99.90
47310;DHT22;33046;52.270;6.832;2023-04-01T12:04:29;14.70;99.90
47310;DHT22;33046;52.270;6.832;2023-04-01T12:06:44;14.70;99.90
47310;DHT22;33046;52.270;6.832;2023-04-01T12:08:59;14.60;99.90
47310;DHT22;33046;52.270;6.832;2023-04-01T12:11:14;14.50;99.90
47310;DHT22;33046;52.270;6.832;2023-04-01T12:13:30;14.60;99.90
47310;DHT22;33046;52.270;6.832;2023-04-01T12:15:59;14.50;99.90
47310;DHT22;33046;52.270;6.832;2023-04-01T12:18:15;14.50;99.90
47310;DHT22;33046;52.270;6.832;2023-04-01T12:20:34;14.50;99.90
47310;DHT22;33046;52.270;6.832;2023-04-01T12:22:48;14.50;99.90
47310;DHT22;33046;52.270;6.832;2023-04-01T12:25:00;14.50;99.90
47310;DHT22;33046;52.270;6.832;2023-04-01T12:27:22;14.50;99.90
47310;DHT22;33046;52.270;6.832;2023-04-01T12:29:45;14.60;99.90
47310;DHT22;33046;52.270;6.832;2023-04-01T12:32:00;14.60;99.90
47310;DHT22;33046;52.270;6.832;2023-04-01T12:34:42;14.60;99.90
47310;DHT22;33046;52.270;6.832;2023-04-01T12:36:58;14.60;99.90
47310;DHT22;33046;52.270;6.832;2023-04-01T12:39:37;14.60;99.90
47310;DHT22;33046;52.270;6.832;2023-04-01T12:41:52;14.70;99.90
47310;DHT22;33046;52.270;6.832;2023-04-01T12:44:26;14.70;99.90
47310;DHT22;33046;52.270;6.832;2023-04-01T12:46:53;14.80;99.90
47310;DHT22;33046;52.270;6.832;2023-04-01T12:51:46;14.80;99.90
47310;DHT22;33046;52.270;6.832;2023-04-01T12:54:14;14.90;99.90
47310;DHT22;33046;52.270;6.832;2023-04-01T12:56:31;14.80;99.90
47310;DHT22;33046;52.270;6.832;2023-04-01T12:59:01;14.90;99.90
47310;DHT22;33046;52.270;6.832;2023-04-01T13:01:46;14.90;99.90
47310;DHT22;33046;52.270;6.832;2023-04-01T13:06:53;14.80;99.90
47310;DHT22;33046;52.270;6.832;2023-04-01T13:09:13;14.70;99.90
47310;DHT22;33046;52.270;6.832;2023-04-01T13:11:28;14.60;99.90
47310;DHT22;33046;52.270;6.832;2023-04-01T13:13:53;14.60;99.90
47310;DHT22;33046;52.270;6.832;2023-04-01T13:16:10;14.50;99.90
47310;DHT22;33046;52.270;6.832;2023-04-01T13:18:26;14.50;99.90
47310;DHT22;33046;52.270;6.832;2023-04-01T13:20:43;14.50;99.90
47310;DHT22;33046;52.270;6.832;2023-04-01T13:23:00;14.50;99.90
47310;DHT22;33046;52.270;6.832;2023-04-01T13:25:21;14.50;99.90
47310;DHT22;33046;52.270;6.832;2023-04-01T13:27:35;14.50;99.90
47310;DHT22;33046;52.270;6.832;2023-04-01T13:29:57;14.50;99.90
47310;DHT22;33046;52.270;6.832;2023-04-01T13:32:20;14.60;99.90
47310;DHT22;33046;52.270;6.832;2023-04-01T13:34:43;14.60;99.90
47310;DHT22;33046;52.270;6.832;2023-04-01T13:37:03;14.50;99.90
47310;DHT22;33046;52.270;6.832;2023-04-01T13:39:47;14.50;99.90
47310;DHT22;33046;52.270;6.832;2023-04-01T13:42:11;14.50;99.90
47310;DHT22;33046;52.270;6.832;2023-04-01T13:44:24;14.50;99.90
47310;DHT22;33046;52.270;6.832;2023-04-01T13:46:48;14.40;99.90
47310;DHT22;33046;52.270;6.832;2023-04-01T13:49:23;14.50;99.90
47310;DHT22;33046;52.270;6.832;2023-04-01T13:52:00;14.40;99.90
47310;DHT22;33046;52.270;6.832;2023-04-01T13:54:36;14.40;99.90
47310;DHT22;33046;52.270;6.832;2023-04-01T13:56:53;14.50;99.90
47310;DHT22;33046;52.270;6.832;2023-04-01T14:01:41;14.50;99.90
47310;DHT22;33046;52.270;6.832;2023-04-01T14:04:03;14.50;99.90
47310;DHT22;33046;52.270;6.832;2023-04-01T14:06:28;14.50;99.90
47310;DHT22;33046;52.270;6.832;2023-04-01T14:08:55;14.50;99.90
47310;DHT22;33046;52.270;6.832;2023-04-01T14:11:14;14.50;99.90
47310;DHT22;33046;52.270;6.832;2023-04-01T14:13:30;14.50;99.90
47310;DHT22;33046;52.270;6.832;2023-04-01T14:15:48;14.40;99.90
47310;DHT22;33046;52.270;6.832;2023-04-01T14:18:10;14.50;99.90
47310;DHT22;33046;52.270;6.832;2023-04-01T14:20:36;14.50;99.90
47310;DHT22;33046;52.270;6.832;2023-04-01T14:22:55;14.50;99.90
47310;DHT22;33046;52.270;6.832;2023-04-01T14:25:27;14.40;99.90
47310;DHT22;33046;52.270;6.832;2023-04-01T14:27:46;14.40;99.90
47310;DHT22;33046;52.270;6.832;2023-04-01T14:30:04;14.30;99.90
47310;DHT22;33046;52.270;6.832;2023-04-01T14:32:27;14.30;99.90
47310;DHT22;33046;52.270;6.832;2023-04-01T14:34:49;14.30;99.90
47310;DHT22;33046;52.270;6.832;2023-04-01T14:37:15;14.20;99.90
47310;DHT22;33046;52.270;6.832;2023-04-01T14:39:38;14.20;99.90
47310;DHT22;33046;52.270;6.832;2023-04-01T14:41:51;14.20;99.90
47310;DHT22;33046;52.270;6.832;2023-04-01T14:49:24;14.00;99.90
47310;DHT22;33046;52.270;6.832;2023-04-01T14:51:38;14.00;99.90
47310;DHT22;33046;52.270;6.832;2023-04-01T14:53:58;14.00;99.90
47310;DHT22;33046;52.270;6.832;2023-04-01T14:56:06;13.90;99.90
47310;DHT22;33046;52.270;6.832;2023-04-01T14:58:14;13.90;99.90
47310;DHT22;33046;52.270;6.832;2023-04-01T15:00:22;13.90;99.90
47310;DHT22;33046;52.270;6.832;2023-04-01T15:02:42;13.90;99.90
47310;DHT22;33046;52.270;6.832;2023-04-01T15:04:57;13.80;99.90
47310;DHT22;33046;52.270;6.832;2023-04-01T15:10:16;13.90;99.90
47310;DHT22;33046;52.270;6.832;2023-04-01T15:12:30;13.90;99.90
47310;DHT22;33046;52.270;6.832;2023-04-01T15:14:53;14.00;99.90
47310;DHT22;33046;52.270;6.832;2023-04-01T15:17:17;14.00;99.90
47310;DHT22;33046;52.270;6.832;2023-04-01T15:19:35;14.00;99.90
47310;DHT22;33046;52.270;6.832;2023-04-01T15:21:59;13.90;99.90
47310;DHT22;33046;52.270;6.832;2023-04-01T15:24:20;13.80;99.90
47310;DHT22;33046;52.270;6.832;2023-04-01T15:26:42;13.80;99.90
47310;DHT22;33046;52.270;6.832;2023-04-01T15:29:01;13.80;99.90
47310;DHT22;33046;52.270;6.832;2023-04-01T15:31:14;13.70;99.90
47310;DHT22;33046;52.270;6.832;2023-04-01T15:33:42;13.70;99.90